Time;durP1;ratioP1;P1;durP2;ratioP2;P2;SDS_P1;SDS_P2;PMS_P1;PMS_P2;Temp;Humidity;BMP_temperature;BMP_pressure;BME280_temperature;BME280_humidity;BME280_pressure;Samples;Min_cycle;Max_cycle;Signal;HPM_P1;HPM_P2
2021/01/27 00:00:48;;;;;;;12.65;7.60;;;20.20;71.20;;;;;;4993920;28;20036;-58
2021/01/27 00:03:14;;;;;;;14.95;8.40;;;20.20;71.30;;;;;;4994060;28;20030;-58
2021/01/27 00:05:50;;;;;;;13.05;7.88;;;20.20;71.40;;;;;;5005812;28;20076;-58
2021/01/27 00:08:17;;;;;;;13.57;7.65;;;20.20;70.90;;;;;;4982821;28;20108;-57
2021/01/27 00:10:43;;;;;;;13.90;7.88;;;20.20;71.30;;;;;;4998693;28;20070;-57
2021/01/27 00:13:16;;;;;;;14.45;8.15;;;20.20;71.30;;;;;;4992140;28;20495;-58
2021/01/27 00:15:43;;;;;;;12.27;7.78;;;20.20;71.50;;;;;;4994159;28;20088;-57
2021/01/27 00:18:10;;;;;;;13.95;7.88;;;20.20;71.50;;;;;;4993862;28;20034;-58
2021/01/27 00:20:36;;;;;;;12.10;7.65;;;20.20;70.90;;;;;;4992512;28;20399;-58
2021/01/27 00:23:03;;;;;;;12.40;7.70;;;20.20;71.70;;;;;;4994127;28;20026;-58
2021/01/27 00:25:32;;;;;;;11.55;7.30;;;20.20;71.10;;;;;;4994047;28;20109;-60
2021/01/27 00:27:58;;;;;;;13.18;7.68;;;20.20;71.20;;;;;;4993807;28;20026;-58
2021/01/27 00:30:36;;;;;;;12.93;6.65;;;20.20;70.60;;;;;;4993763;28;20042;-58
2021/01/27 00:33:03;;;;;;;11.60;7.00;;;20.20;70.70;;;;;;4990814;28;20118;-58
2021/01/27 00:35:33;;;;;;;12.93;6.78;;;20.20;70.40;;;;;;4993538;28;20567;-58
2021/01/27 00:38:01;;;;;;;11.50;6.70;;;20.20;71.20;;;;;;4993546;28;20372;-58
2021/01/27 00:40:27;;;;;;;11.57;7.18;;;20.20;71.60;;;;;;4993257;28;20023;-57
2021/01/27 00:42:53;;;;;;;11.45;6.40;;;20.20;70.80;;;;;;4993706;28;20702;-58
2021/01/27 00:45:20;;;;;;;11.38;6.80;;;20.20;70.40;;;;;;4995599;28;20026;-58
2021/01/27 00:47:46;;;;;;;10.63;6.53;;;20.20;70.80;;;;;;4993453;28;20034;-58
2021/01/27 00:50:14;;;;;;;11.70;6.85;;;20.20;70.60;;;;;;4993545;28;20046;-57
2021/01/27 00:52:40;;;;;;;11.70;6.63;;;20.20;70.60;;;;;;4993194;28;20116;-58
2021/01/27 00:55:11;;;;;;;9.90;6.30;;;20.20;70.20;;;;;;4993475;28;20134;-57
2021/01/27 00:57:37;;;;;;;9.45;6.40;;;20.20;70.60;;;;;;4993773;28;20027;-57
2021/01/27 01:00:11;;;;;;;11.13;6.38;;;20.20;70.90;;;;;;4986811;28;20031;-58
2021/01/27 01:02:39;;;;;;;8.95;6.00;;;20.10;70.80;;;;;;4978062;28;20494;-58
2021/01/27 01:05:07;;;;;;;8.88;6.22;;;20.20;70.30;;;;;;4990806;28;20027;-58
2021/01/27 01:07:33;;;;;;;9.93;6.35;;;20.20;70.50;;;;;;4993856;28;20145;-58
2021/01/27 01:09:58;;;;;;;11.07;6.60;;;20.10;70.80;;;;;;4993611;28;20133;-58
2021/01/27 01:12:24;;;;;;;11.30;6.88;;;20.20;71.00;;;;;;4993438;28;20033;-58
2021/01/27 01:14:50;;;;;;;13.02;6.97;;;20.20;70.60;;;;;;4991706;28;20065;-58
2021/01/27 01:17:15;;;;;;;11.57;6.22;;;20.20;70.40;;;;;;4992789;28;20033;-58
2021/01/27 01:19:41;;;;;;;11.55;6.90;;;20.20;70.70;;;;;;4993795;28;20085;-58
2021/01/27 01:22:06;;;;;;;11.15;6.63;;;20.20;70.60;;;;;;4993165;28;20018;-58
2021/01/27 01:24:32;;;;;;;10.77;6.72;;;20.20;71.00;;;;;;4995714;28;20571;-58
2021/01/27 01:26:57;;;;;;;8.73;5.50;;;20.20;70.70;;;;;;4998069;28;20037;-57
2021/01/27 01:29:23;;;;;;;10.48;6.35;;;20.20;70.70;;;;;;4997619;28;20113;-58
2021/01/27 01:31:48;;;;;;;10.00;6.45;;;20.20;70.20;;;;;;4994176;28;20093;-58
2021/01/27 01:34:14;;;;;;;9.48;6.30;;;20.10;70.30;;;;;;4997086;28;20023;-58
2021/01/27 01:36:41;;;;;;;9.43;5.80;;;20.20;70.80;;;;;;4997193;28;20039;-57
2021/01/27 01:39:06;;;;;;;9.30;5.72;;;20.20;70.10;;;;;;4998975;28;20031;-58
2021/01/27 01:41:32;;;;;;;10.45;6.15;;;20.10;70.80;;;;;;4996825;28;20379;-58
2021/01/27 01:43:57;;;;;;;9.55;5.53;;;20.10;70.00;;;;;;4989806;28;20133;-58
2021/01/27 01:46:24;;;;;;;8.98;6.15;;;20.20;70.30;;;;;;4997036;28;20029;-58
2021/01/27 01:48:55;;;;;;;10.50;6.63;;;20.10;70.40;;;;;;5005277;28;20027;-58
2021/01/27 01:51:34;;;;;;;10.00;6.07;;;20.10;70.10;;;;;;4996747;28;20022;-57
2021/01/27 01:54:05;;;;;;;9.05;5.30;;;20.10;70.30;;;;;;4996652;28;20026;-58
2021/01/27 01:56:35;;;;;;;11.52;6.07;;;20.10;70.20;;;;;;4996391;28;20033;-58
2021/01/27 01:59:03;;;;;;;8.48;5.70;;;20.10;70.10;;;;;;4993380;28;20475;-58
2021/01/27 02:01:29;;;;;;;8.68;5.78;;;20.10;69.90;;;;;;4996295;28;20089;-58
2021/01/27 02:03:55;;;;;;;8.95;5.63;;;20.10;69.60;;;;;;4995244;28;20464;-58
2021/01/27 02:06:21;;;;;;;9.88;6.00;;;20.10;70.50;;;;;;4996642;28;20030;-58
2021/01/27 02:08:50;;;;;;;9.57;5.72;;;20.10;69.70;;;;;;4990762;28;20050;-58
2021/01/27 02:11:18;;;;;;;7.53;5.63;;;20.10;69.40;;;;;;4995726;28;20035;-58
2021/01/27 02:14:09;;;;;;;7.53;5.30;;;20.10;70.10;;;;;;4995972;28;20037;-58
2021/01/27 02:16:49;;;;;;;8.85;6.18;;;20.10;69.70;;;;;;4996450;28;20105;-58
2021/01/27 02:19:39;;;;;;;7.78;5.47;;;20.10;69.90;;;;;;5000778;28;20440;-58
2021/01/27 02:22:43;;;;;;;8.02;5.70;;;20.10;70.20;;;;;;4994784;28;20026;-58
2021/01/27 02:25:52;;;;;;;8.05;5.35;;;20.10;70.20;;;;;;4974954;28;20054;-58
2021/01/27 02:28:36;;;;;;;9.27;5.57;;;20.10;70.10;;;;;;4990349;28;20114;-58
2021/01/27 02:31:24;;;;;;;9.63;5.72;;;20.10;70.30;;;;;;4989238;28;20038;-58
2021/01/27 02:34:11;;;;;;;9.02;5.80;;;20.10;70.20;;;;;;5003373;28;20030;-58
2021/01/27 02:37:01;;;;;;;8.00;5.18;;;20.10;70.10;;;;;;4995652;28;20480;-58
2021/01/27 02:39:32;;;;;;;7.28;4.90;;;20.10;70.50;;;;;;4993899;28;20030;-58
2021/01/27 02:42:03;;;;;;;9.65;5.65;;;20.10;70.10;;;;;;4995857;28;20058;-58
2021/01/27 02:44:40;;;;;;;10.38;5.70;;;20.10;70.20;;;;;;4994658;28;20027;-58
2021/01/27 02:47:13;;;;;;;7.18;5.20;;;20.10;70.30;;;;;;4987491;28;20042;-58
2021/01/27 02:49:49;;;;;;;7.72;5.07;;;20.10;70.60;;;;;;5000241;28;20042;-58
2021/01/27 02:52:31;;;;;;;6.63;4.65;;;20.10;71.10;;;;;;4995679;28;20035;-57
2021/01/27 02:55:23;;;;;;;7.60;5.28;;;20.10;69.90;;;;;;4982158;28;20345;-58
2021/01/27 02:58:04;;;;;;;8.57;6.03;;;20.10;70.50;;;;;;4999292;28;20034;-58
2021/01/27 03:00:36;;;;;;;7.38;5.50;;;20.00;69.90;;;;;;4994127;28;20029;-58
2021/01/27 03:03:06;;;;;;;;;;;20.10;70.20;;;;;;4996108;28;20033;-58
2021/01/27 03:05:39;;;;;;;7.10;5.32;;;20.10;70.60;;;;;;4979148;28;19906;-58
2021/01/27 03:08:18;;;;;;;8.18;5.78;;;20.10;70.30;;;;;;4989423;28;20054;-58
2021/01/27 03:10:47;;;;;;;7.20;5.28;;;20.10;70.60;;;;;;4998990;28;20570;-58
2021/01/27 03:13:13;;;;;;;7.45;4.95;;;20.00;69.90;;;;;;5000814;28;20038;-58
2021/01/27 03:15:39;;;;;;;7.45;5.22;;;20.00;70.00;;;;;;4993511;28;20383;-58
2021/01/27 03:18:12;;;;;;;7.82;5.43;;;20.10;69.90;;;;;;4993683;28;20471;-58
2021/01/27 03:20:40;;;;;;;7.72;4.95;;;20.00;70.00;;;;;;4993806;28;20262;-58
2021/01/27 03:23:14;;;;;;;8.20;5.70;;;20.00;69.90;;;;;;4998488;28;20037;-57
2021/01/27 03:25:53;;;;;;;7.80;4.95;;;20.00;69.90;;;;;;4995318;28;20041;-57
2021/01/27 03:28:36;;;;;;;7.47;5.45;;;20.00;70.30;;;;;;4986126;28;20090;-57
2021/01/27 03:31:02;;;;;;;6.53;4.82;;;20.10;69.90;;;;;;4996046;28;20046;-58
2021/01/27 03:33:35;;;;;;;6.55;4.70;;;20.00;70.20;;;;;;5001650;28;20041;-57
2021/01/27 03:36:03;;;;;;;6.53;4.85;;;20.00;69.70;;;;;;4994082;28;20423;-58
2021/01/27 03:38:35;;;;;;;6.75;4.95;;;20.00;69.80;;;;;;4992818;28;20023;-58
2021/01/27 03:41:15;;;;;;;9.70;5.65;;;20.10;70.00;;;;;;4993965;28;20077;-58
2021/01/27 03:43:53;;;;;;;7.90;4.90;;;20.00;69.60;;;;;;4982357;28;20439;-58
2021/01/27 03:46:30;;;;;;;7.20;5.10;;;20.00;69.30;;;;;;4978851;28;20022;-58
2021/01/27 03:49:05;;;;;;;6.13;4.40;;;20.00;69.70;;;;;;4990567;28;20034;-58
2021/01/27 03:51:38;;;;;;;7.75;5.22;;;20.00;69.70;;;;;;4993247;28;20109;-58
2021/01/27 03:54:09;;;;;;;6.85;4.93;;;20.00;69.80;;;;;;4989796;28;20061;-58
2021/01/27 03:56:54;;;;;;;6.88;5.10;;;20.00;69.30;;;;;;4994289;28;20498;-58
2021/01/27 03:59:20;;;;;;;6.53;4.82;;;20.00;69.30;;;;;;4984331;28;20028;-58
2021/01/27 04:01:51;;;;;;;6.45;4.70;;;20.00;69.00;;;;;;4993998;28;20112;-58
2021/01/27 04:04:18;;;;;;;7.40;5.13;;;20.00;69.40;;;;;;4997032;28;20030;-58
2021/01/27 04:06:44;;;;;;;7.63;5.00;;;20.00;69.50;;;;;;4994430;28;20049;-58
2021/01/27 04:09:10;;;;;;;7.20;4.90;;;20.00;68.90;;;;;;4992656;28;20051;-58
2021/01/27 04:11:36;;;;;;;6.05;4.35;;;20.00;69.30;;;;;;4994064;28;20030;-58
2021/01/27 04:14:02;;;;;;;7.68;4.45;;;20.00;68.70;;;;;;4992960;28;20038;-58
2021/01/27 04:16:29;;;;;;;6.07;4.35;;;20.00;68.70;;;;;;4994089;28;20023;-58
2021/01/27 04:18:55;;;;;;;7.82;4.95;;;20.00;68.60;;;;;;4994050;28;20113;-58
2021/01/27 04:21:21;;;;;;;7.18;4.50;;;20.00;68.60;;;;;;5002458;28;20175;-58
2021/01/27 04:23:46;;;;;;;7.15;4.28;;;20.00;68.70;;;;;;4993742;28;20122;-58
2021/01/27 04:26:12;;;;;;;6.10;4.28;;;20.00;68.60;;;;;;5002871;28;20357;-58
2021/01/27 04:28:38;;;;;;;5.53;4.20;;;20.00;68.90;;;;;;4993922;28;20026;-58
2021/01/27 04:31:03;;;;;;;5.82;4.43;;;20.00;68.90;;;;;;4994086;28;20108;-57
2021/01/27 04:33:29;;;;;;;7.38;5.05;;;19.90;68.60;;;;;;4994082;28;20034;-58
2021/01/27 04:35:54;;;;;;;6.25;4.38;;;19.90;69.00;;;;;;4991990;28;20794;-58
2021/01/27 04:38:20;;;;;;;5.35;4.13;;;19.90;69.00;;;;;;4992544;28;20042;-58
2021/01/27 04:40:47;;;;;;;6.85;4.50;;;19.90;69.10;;;;;;4993738;28;20031;-58
2021/01/27 04:43:26;;;;;;;5.20;3.95;;;19.90;69.10;;;;;;4993235;28;20042;-58
2021/01/27 04:46:02;;;;;;;5.30;3.80;;;19.90;68.70;;;;;;4994566;28;20030;-58
2021/01/27 04:48:47;;;;;;;4.82;4.10;;;19.90;68.70;;;;;;4994115;28;20522;-58
2021/01/27 04:51:21;;;;;;;6.13;4.47;;;19.90;68.80;;;;;;4992168;28;20045;-58
2021/01/27 04:53:54;;;;;;;5.55;3.78;;;19.90;68.90;;;;;;4996715;28;20026;-58
2021/01/27 04:56:25;;;;;;;;;;;19.90;69.40;;;;;;4994321;28;20023;-58
2021/01/27 04:59:13;;;;;;;6.97;4.38;;;19.90;68.70;;;;;;4995947;28;19984;-58
2021/01/27 05:01:38;;;;;;;5.75;3.90;;;20.00;68.40;;;;;;4996353;28;20049;-58
2021/01/27 05:04:33;;;;;;;4.65;3.78;;;20.00;68.70;;;;;;4994752;28;20030;-58
2021/01/27 05:07:05;;;;;;;5.72;4.05;;;20.00;68.70;;;;;;4989542;28;20033;-58
2021/01/27 05:09:38;;;;;;;5.77;4.23;;;20.00;68.40;;;;;;4997606;28;20057;-58
2021/01/27 05:12:07;;;;;;;6.43;3.83;;;20.00;68.30;;;;;;4997403;28;20280;-58
2021/01/27 05:14:34;;;;;;;5.22;3.88;;;20.10;68.10;;;;;;4999047;28;20375;-58
2021/01/27 05:17:08;;;;;;;6.53;3.88;;;20.10;68.80;;;;;;5006405;28;20033;-58
2021/01/27 05:19:34;;;;;;;5.00;3.58;;;20.10;68.10;;;;;;4988305;28;20036;-58
2021/01/27 05:22:01;;;;;;;5.30;3.97;;;20.10;67.90;;;;;;4997234;28;20431;-58
2021/01/27 05:24:27;;;;;;;4.45;3.28;;;20.20;68.10;;;;;;4997413;28;20031;-59
2021/01/27 05:27:17;;;;;;;5.20;3.55;;;20.20;67.70;;;;;;5004750;28;20026;-58
2021/01/27 05:29:54;;;;;;;5.53;3.72;;;20.20;67.90;;;;;;4995419;28;20070;-59
2021/01/27 05:32:25;;;;;;;6.78;3.70;;;20.20;67.90;;;;;;4996596;28;20023;-58
2021/01/27 05:34:57;;;;;;;4.50;3.22;;;20.20;68.00;;;;;;4986309;28;20031;-58
2021/01/27 05:37:28;;;;;;;;;;;20.20;68.10;;;;;;4984747;28;20093;-58
2021/01/27 05:40:07;;;;;;;5.55;3.72;;;20.20;68.00;;;;;;4995472;28;20290;-59
2021/01/27 05:42:34;;;;;;;4.30;3.50;;;20.20;68.00;;;;;;4988270;28;20076;-58
2021/01/27 05:45:34;;;;;;;5.28;3.97;;;20.20;68.20;;;;;;4999130;28;20360;-58
2021/01/27 05:48:14;;;;;;;5.35;3.67;;;20.20;68.10;;;;;;4991617;28;20057;-58
2021/01/27 05:50:41;;;;;;;6.07;4.00;;;20.20;68.10;;;;;;4995911;28;20042;-58
2021/01/27 05:53:14;;;;;;;5.35;3.75;;;20.30;68.40;;;;;;4988404;28;20468;-59
2021/01/27 05:56:14;;;;;;;5.07;3.45;;;20.30;68.50;;;;;;4996796;28;20038;-58
2021/01/27 05:59:04;;;;;;;4.97;3.30;;;20.30;68.60;;;;;;4996893;28;20033;-58
2021/01/27 06:01:33;;;;;;;5.32;3.35;;;20.30;68.50;;;;;;4990940;28;20383;-58
2021/01/27 06:04:01;;;;;;;3.97;3.20;;;20.30;68.50;;;;;;4996319;28;20026;-58
2021/01/27 06:06:34;;;;;;;4.57;3.17;;;20.30;68.60;;;;;;4992741;28;20035;-58
2021/01/27 06:09:03;;;;;;;6.93;3.55;;;20.30;68.70;;;;;;4994863;28;20490;-58
2021/01/27 06:11:29;;;;;;;4.03;2.90;;;20.30;68.50;;;;;;4996205;28;20064;-58
2021/01/27 06:14:08;;;;;;;6.22;3.42;;;20.30;68.60;;;;;;4995861;28;20066;-59
2021/01/27 06:16:45;;;;;;;5.65;3.15;;;20.30;68.70;;;;;;4992314;28;20041;-58
2021/01/27 06:19:12;;;;;;;5.93;3.30;;;20.30;68.60;;;;;;4995082;28;20518;-58
2021/01/27 06:21:57;;;;;;;5.43;3.30;;;20.30;68.50;;;;;;4995629;28;20053;-59
2021/01/27 06:24:33;;;;;;;4.82;3.47;;;20.30;68.40;;;;;;4995827;28;20076;-58
2021/01/27 06:27:14;;;;;;;5.03;2.97;;;20.30;68.50;;;;;;4995918;28;20019;-57
2021/01/27 06:30:16;;;;;;;6.28;3.22;;;20.30;68.30;;;;;;4986852;28;20136;-58
2021/01/27 06:33:13;;;;;;;8.38;3.20;;;20.30;68.40;;;;;;4995968;28;20374;-58
2021/01/27 06:35:38;;;;;;;5.30;3.13;;;20.30;68.30;;;;;;4995894;28;20030;-57
2021/01/27 06:38:36;;;;;;;4.80;3.22;;;20.30;68.40;;;;;;4992846;28;20440;-58
2021/01/27 06:41:30;;;;;;;5.07;3.20;;;20.30;68.40;;;;;;4983790;28;20046;-58
2021/01/27 06:44:01;;;;;;;7.13;3.22;;;20.30;68.40;;;;;;4995365;28;20486;-58
2021/01/27 06:46:36;;;;;;;4.97;3.20;;;20.30;68.20;;;;;;4994238;28;20030;-58
2021/01/27 06:49:17;;;;;;;5.03;2.60;;;20.20;68.20;;;;;;5000146;28;20033;-58
2021/01/27 06:52:25;;;;;;;4.53;2.97;;;20.30;68.30;;;;;;4994152;28;20450;-58
2021/01/27 06:55:12;;;;;;;6.45;3.60;;;20.30;68.10;;;;;;4979872;28;20046;-58
2021/01/27 06:58:09;;;;;;;4.75;3.58;;;20.30;68.20;;;;;;4995370;28;20136;-58
2021/01/27 07:00:43;;;;;;;5.00;3.05;;;20.20;68.20;;;;;;5004344;28;20058;-58
2021/01/27 07:03:23;;;;;;;4.45;2.85;;;20.30;68.10;;;;;;4993816;28;20475;-57
2021/01/27 07:05:57;;;;;;;6.82;2.90;;;20.20;68.00;;;;;;4995341;28;20495;-58
2021/01/27 07:08:41;;;;;;;6.32;3.30;;;20.30;68.10;;;;;;4995147;28;20042;-58
2021/01/27 07:11:12;;;;;;;4.65;2.75;;;20.20;68.50;;;;;;4994931;28;20035;-57
2021/01/27 07:13:50;;;;;;;5.43;2.80;;;20.30;68.10;;;;;;4993419;28;20072;-57
2021/01/27 07:16:47;;;;;;;5.55;2.58;;;20.30;68.20;;;;;;4995309;28;20121;-57
2021/01/27 07:19:21;;;;;;;8.43;2.85;;;20.20;68.00;;;;;;4985081;28;20125;-54
2021/01/27 07:22:14;;;;;;;4.28;3.00;;;20.30;68.40;;;;;;4994469;28;20027;-55
2021/01/27 07:24:55;;;;;;;;;;;20.30;68.50;;;;;;4993552;28;20403;-53
2021/01/27 07:27:22;;;;;;;6.07;2.90;;;20.40;68.20;;;;;;4994554;28;19996;-52
2021/01/27 07:30:01;;;;;;;3.78;2.40;;;20.40;68.20;;;;;;4994504;28;20112;-55
2021/01/27 07:32:49;;;;;;;6.22;3.60;;;20.40;68.80;;;;;;4994235;28;20022;-55
2021/01/27 07:35:24;;;;;;;43.85;7.38;;;20.30;70.10;;;;;;4994345;28;20487;-54
2021/01/27 07:38:02;;;;;;;96.22;20.45;;;20.40;70.80;;;;;;4993247;28;20427;-55
2021/01/27 07:40:49;;;;;;;55.35;12.63;;;20.40;70.30;;;;;;5001757;28;20184;-52
2021/01/27 07:43:38;;;;;;;46.53;10.18;;;20.40;70.20;;;;;;4993536;28;20122;-53
2021/01/27 07:46:04;;;;;;;31.67;9.57;;;20.60;70.60;;;;;;4993376;28;20434;-52
2021/01/27 07:48:39;;;;;;;47.50;10.10;;;20.70;70.80;;;;;;4994071;28;20030;-54
2021/01/27 07:51:23;;;;;;;40.35;10.32;;;20.80;69.90;;;;;;4998206;28;20095;-54
2021/01/27 07:54:07;;;;;;;43.95;10.32;;;20.80;69.40;;;;;;4994273;28;20120;-54
2021/01/27 07:56:42;;;;;;;41.75;10.15;;;20.80;69.90;;;;;;4992981;28;20030;-53
2021/01/27 07:59:53;;;;;;;41.15;9.98;;;20.90;70.00;;;;;;4993701;28;20548;-54
2021/01/27 08:02:28;;;;;;;37.50;9.65;;;21.00;70.90;;;;;;4997330;28;20092;-52
2021/01/27 08:05:01;;;;;;;40.78;9.38;;;21.00;69.50;;;;;;4992711;28;20088;-52
2021/01/27 08:07:32;;;;;;;;;;;21.00;69.60;;;;;;5004583;28;20029;-54
2021/01/27 08:10:16;;;;;;;40.00;9.20;;;21.00;69.70;;;;;;4994723;28;19940;-52
2021/01/27 08:12:50;;;;;;;40.53;10.07;;;21.00;69.60;;;;;;4990460;28;20033;-52
2021/01/27 08:15:25;;;;;;;63.55;14.48;;;21.00;69.60;;;;;;4991296;28;20045;-52
2021/01/27 08:17:54;;;;;;;53.15;15.02;;;21.00;68.60;;;;;;4991232;28;20034;-55
2021/01/27 08:20:19;;;;;;;52.05;13.60;;;20.80;68.40;;;;;;4988233;28;20424;-52
2021/01/27 08:22:51;;;;;;;54.88;13.75;;;20.90;69.40;;;;;;4994175;28;20030;-52
2021/01/27 08:25:54;;;;;;;51.95;13.30;;;21.00;69.40;;;;;;4992635;28;20072;-51
2021/01/27 08:28:22;;;;;;;;;;;21.10;69.30;;;;;;4994749;28;20034;-52
2021/01/27 08:31:09;;;;;;;49.55;13.57;;;21.10;69.20;;;;;;4992096;28;19914;-53
2021/01/27 08:33:47;;;;;;;42.25;12.90;;;21.20;69.30;;;;;;4993943;28;20022;-52
2021/01/27 08:36:33;;;;;;;44.97;12.02;;;21.10;69.30;;;;;;5000225;28;20041;-52
2021/01/27 08:38:58;;;;;;;38.65;12.07;;;21.20;69.60;;;;;;4984980;28;20046;-54
2021/01/27 08:41:39;;;;;;;39.95;12.45;;;21.10;69.70;;;;;;4997927;28;20087;-53
2021/01/27 08:44:06;;;;;;;33.95;10.88;;;21.20;69.70;;;;;;4994287;28;20108;-52
2021/01/27 08:46:46;;;;;;;31.42;11.38;;;21.20;69.70;;;;;;5000200;28;20031;-52
2021/01/27 08:49:31;;;;;;;45.13;11.98;;;21.20;69.50;;;;;;4993549;28;20073;-52
2021/01/27 08:51:57;;;;;;;38.40;12.50;;;21.20;69.70;;;;;;4999892;28;20030;-53
2021/01/27 08:54:28;;;;;;;40.95;11.27;;;21.30;69.70;;;;;;5001750;28;20036;-52
2021/01/27 08:57:32;;;;;;;34.63;10.65;;;21.30;69.60;;;;;;4990906;28;20391;-52
2021/01/27 09:00:32;;;;;;;29.83;9.80;;;21.30;69.40;;;;;;4996258;28;20117;-54
2021/01/27 09:02:59;;;;;;;33.65;10.07;;;21.20;69.70;;;;;;4999329;28;20158;-52
2021/01/27 09:05:27;;;;;;;31.42;10.52;;;21.20;69.90;;;;;;4995386;28;20483;-52
2021/01/27 09:07:56;;;;;;;32.85;10.07;;;21.20;69.90;;;;;;4995575;28;20044;-53
2021/01/27 09:10:36;;;;;;;34.47;11.27;;;21.30;69.90;;;;;;5006121;28;20129;-54
2021/01/27 09:13:26;;;;;;;31.77;10.27;;;21.30;69.70;;;;;;4993914;28;20030;-56
2021/01/27 09:16:00;;;;;;;34.08;10.43;;;21.30;69.90;;;;;;4996544;28;20046;-55
2021/01/27 09:18:26;;;;;;;31.48;10.10;;;21.40;69.70;;;;;;4993406;28;20029;-55
2021/01/27 09:20:52;;;;;;;26.25;9.38;;;21.40;69.40;;;;;;4993273;28;20527;-52
2021/01/27 09:23:20;;;;;;;30.15;9.77;;;21.40;69.70;;;;;;5002872;28;20109;-55
2021/01/27 09:25:48;;;;;;;25.95;9.60;;;21.40;69.60;;;;;;4994610;28;20033;-56
2021/01/27 09:28:22;;;;;;;31.70;9.80;;;21.40;70.30;;;;;;4992193;28;20027;-56
2021/01/27 09:30:49;;;;;;;27.08;9.38;;;21.40;69.80;;;;;;4993057;28;20050;-53
2021/01/27 09:33:27;;;;;;;25.50;8.77;;;21.40;69.90;;;;;;4993034;28;20468;-58
2021/01/27 09:36:07;;;;;;;28.95;9.20;;;21.30;68.60;;;;;;4993355;28;20029;-59
2021/01/27 09:38:33;;;;;;;29.85;10.20;;;21.10;69.10;;;;;;4993390;28;20027;-59
2021/01/27 09:41:11;;;;;;;28.80;9.35;;;21.00;69.00;;;;;;4993189;28;20080;-59
2021/01/27 09:43:42;;;;;;;23.92;8.43;;;20.90;69.60;;;;;;4993598;28;20062;-59
2021/01/27 09:46:34;;;;;;;15.30;6.65;;;20.80;70.00;;;;;;4998337;28;20125;-59
2021/01/27 09:49:09;;;;;;;18.60;6.40;;;20.70;66.20;;;;;;4990754;28;20035;-59
2021/01/27 09:51:37;;;;;;;14.30;5.72;;;20.60;67.60;;;;;;5003451;28;20141;-59
2021/01/27 09:54:03;;;;;;;15.93;6.60;;;20.60;65.50;;;;;;4995959;28;20097;-59
2021/01/27 09:56:30;;;;;;;20.17;7.13;;;20.50;67.50;;;;;;4996364;28;20037;-52
2021/01/27 09:58:57;;;;;;;18.30;6.50;;;20.60;68.10;;;;;;4998662;28;20030;-54
2021/01/27 10:01:27;;;;;;;16.92;5.85;;;20.70;68.10;;;;;;4991006;28;20031;-54
2021/01/27 10:04:06;;;;;;;20.38;5.72;;;20.80;68.40;;;;;;5002547;28;20088;-54
2021/01/27 10:06:51;;;;;;;23.52;6.55;;;20.90;68.30;;;;;;5004074;28;20081;-53
2021/01/27 10:09:19;;;;;;;14.57;4.97;;;21.00;68.30;;;;;;4998957;28;20081;-54
2021/01/27 10:11:47;;;;;;;16.90;6.05;;;21.10;68.40;;;;;;5009336;28;20030;-54
2021/01/27 10:14:22;;;;;;;18.30;5.40;;;21.10;68.40;;;;;;4996116;28;20068;-54
2021/01/27 10:16:50;;;;;;;20.08;6.30;;;21.10;68.50;;;;;;4995016;28;20038;-55
2021/01/27 10:19:23;;;;;;;14.85;5.90;;;21.20;68.70;;;;;;5000544;28;20026;-54
2021/01/27 10:21:50;;;;;;;20.83;6.15;;;21.20;68.70;;;;;;4996037;28;20030;-54
2021/01/27 10:24:54;;;;;;;14.10;5.32;;;21.20;68.90;;;;;;4994887;28;20022;-56
2021/01/27 10:27:34;;;;;;;23.48;6.68;;;21.20;69.00;;;;;;4994330;28;20423;-55
2021/01/27 10:30:20;;;;;;;20.10;4.80;;;21.20;69.00;;;;;;5000615;28;20113;-54
2021/01/27 10:32:46;;;;;;;9.52;4.50;;;21.20;69.20;;;;;;5001312;28;20049;-55
2021/01/27 10:35:24;;;;;;;11.40;4.93;;;21.30;69.30;;;;;;4996062;28;20065;-55
2021/01/27 10:38:05;;;;;;;14.00;5.70;;;21.30;69.20;;;;;;4994069;28;20472;-54
2021/01/27 10:40:32;;;;;;;14.23;4.75;;;21.30;69.10;;;;;;5004782;28;20022;-54
2021/01/27 10:43:01;;;;;;;15.35;6.35;;;21.30;69.30;;;;;;4996391;28;20030;-54
2021/01/27 10:45:31;;;;;;;11.68;5.13;;;21.40;69.40;;;;;;5001967;28;20028;-54
2021/01/27 10:48:15;;;;;;;15.55;5.20;;;21.40;69.20;;;;;;4994551;28;20038;-59
2021/01/27 10:50:54;;;;;;;14.77;5.45;;;21.30;68.80;;;;;;4995152;28;20050;-54
2021/01/27 10:53:20;;;;;;;12.73;4.78;;;21.30;69.00;;;;;;4994580;28;20117;-53
2021/01/27 10:55:53;;;;;;;20.92;5.47;;;21.20;69.30;;;;;;4995943;28;20038;-55
2021/01/27 10:58:18;;;;;;;15.70;4.97;;;21.10;69.50;;;;;;4995189;28;20475;-53
2021/01/27 11:00:46;;;;;;;13.75;4.43;;;21.10;68.60;;;;;;4999869;28;20030;-53
2021/01/27 11:03:13;;;;;;;15.93;4.75;;;21.10;69.00;;;;;;4995398;28;20455;-53
2021/01/27 11:05:40;;;;;;;13.00;5.05;;;21.10;69.30;;;;;;4994190;28;20162;-55
2021/01/27 11:08:10;;;;;;;12.35;4.35;;;21.20;69.20;;;;;;4993242;28;20053;-54
2021/01/27 11:10:36;;;;;;;18.15;5.15;;;21.00;66.10;;;;;;5005145;28;20045;-53
2021/01/27 11:13:02;;;;;;;12.90;4.85;;;20.90;69.00;;;;;;4995215;28;20034;-54
2021/01/27 11:15:28;;;;;;;13.60;5.35;;;20.90;69.50;;;;;;4995084;28;20022;-55
2021/01/27 11:17:54;;;;;;;11.80;4.35;;;20.90;68.60;;;;;;4993292;28;20450;-55
2021/01/27 11:20:23;;;;;;;11.25;3.78;;;20.40;56.80;;;;;;4998236;28;20045;-55
2021/01/27 11:22:50;;;;;;;8.52;3.53;;;20.20;60.80;;;;;;4994637;28;20100;-55
2021/01/27 11:25:20;;;;;;;31.95;5.15;;;20.40;67.10;;;;;;4993025;28;20068;-55
2021/01/27 11:27:46;;;;;;;19.90;3.88;;;20.40;68.50;;;;;;4993403;28;20019;-55
2021/01/27 11:30:14;;;;;;;17.63;3.97;;;20.50;69.20;;;;;;4998226;28;20061;-55
2021/01/27 11:32:39;;;;;;;12.80;3.60;;;20.60;69.90;;;;;;4992849;28;20399;-55
2021/01/27 11:35:06;;;;;;;23.02;4.57;;;20.90;68.80;;;;;;4993008;28;20040;-57
2021/01/27 11:37:31;;;;;;;13.25;3.97;;;21.10;69.60;;;;;;4994558;28;20030;-55
2021/01/27 11:39:57;;;;;;;16.65;3.75;;;21.20;70.40;;;;;;4995118;28;20034;-56
2021/01/27 11:42:23;;;;;;;15.18;3.55;;;21.20;70.40;;;;;;5003515;28;20056;-56
2021/01/27 11:44:48;;;;;;;13.43;4.03;;;21.20;71.30;;;;;;4994506;28;20026;-54
2021/01/27 11:47:14;;;;;;;11.88;4.05;;;21.30;73.10;;;;;;4994838;28;20372;-55
2021/01/27 11:49:44;;;;;;;17.05;4.43;;;21.40;71.00;;;;;;4994053;28;20026;-54
2021/01/27 11:52:10;;;;;;;13.70;3.63;;;21.20;72.90;;;;;;4999684;28;20026;-52
2021/01/27 11:54:40;;;;;;;14.57;4.07;;;21.20;72.70;;;;;;4997641;28;20093;-54
2021/01/27 11:57:07;;;;;;;19.15;4.55;;;21.20;72.50;;;;;;4998287;28;20026;-53
2021/01/27 11:59:33;;;;;;;13.88;3.97;;;21.20;72.30;;;;;;4994306;28;20034;-53
2021/01/27 12:02:00;;;;;;;19.45;4.45;;;21.30;72.30;;;;;;4990860;28;20026;-52
2021/01/27 12:04:26;;;;;;;14.15;3.85;;;21.30;72.10;;;;;;4993817;28;20022;-53
2021/01/27 12:06:51;;;;;;;14.30;4.05;;;21.30;72.00;;;;;;4993210;28;20497;-52
2021/01/27 12:09:17;;;;;;;9.60;3.78;;;21.30;72.00;;;;;;4993658;28;20045;-53
2021/01/27 12:11:43;;;;;;;9.27;3.50;;;21.30;71.70;;;;;;4993841;28;20026;-53
2021/01/27 12:14:09;;;;;;;10.60;3.85;;;21.40;71.70;;;;;;5003336;28;20033;-54
2021/01/27 12:16:34;;;;;;;9.82;3.58;;;21.40;71.60;;;;;;4996653;28;20057;-54
2021/01/27 12:19:00;;;;;;;10.38;3.25;;;21.40;71.50;;;;;;4990968;28;20046;-52
2021/01/27 12:21:25;;;;;;;13.05;3.58;;;21.50;71.50;;;;;;4993447;28;20077;-54
2021/01/27 12:23:51;;;;;;;9.35;3.80;;;21.50;71.40;;;;;;4992432;28;20052;-55
2021/01/27 12:26:17;;;;;;;10.23;2.97;;;21.50;71.50;;;;;;5008660;28;20471;-54
2021/01/27 12:28:44;;;;;;;8.43;3.13;;;21.50;71.50;;;;;;5001296;28;20109;-53
2021/01/27 12:31:10;;;;;;;9.35;2.90;;;21.50;71.00;;;;;;4988527;28;20499;-52
2021/01/27 12:33:36;;;;;;;11.43;3.00;;;21.50;71.20;;;;;;5002979;28;20026;-54
2021/01/27 12:36:03;;;;;;;7.72;3.17;;;21.50;71.20;;;;;;4999235;28;20050;-52
2021/01/27 12:38:29;;;;;;;12.40;3.80;;;21.50;71.40;;;;;;4998330;28;20069;-53
2021/01/27 12:40:55;;;;;;;10.18;3.30;;;21.50;71.40;;;;;;4990865;28;20065;-54
2021/01/27 12:43:21;;;;;;;10.80;3.00;;;21.60;71.30;;;;;;4997201;28;20033;-53
2021/01/27 12:45:47;;;;;;;10.23;2.78;;;21.50;71.20;;;;;;4995807;28;20027;-54
2021/01/27 12:48:13;;;;;;;11.38;3.00;;;21.60;71.10;;;;;;4990532;28;20030;-52
2021/01/27 12:50:38;;;;;;;9.93;2.75;;;21.60;71.20;;;;;;4999752;28;20042;-52
2021/01/27 12:53:04;;;;;;;9.93;2.83;;;21.50;71.40;;;;;;4991692;28;20026;-55
2021/01/27 12:55:29;;;;;;;7.80;2.75;;;21.50;71.50;;;;;;4988348;28;20030;-53
2021/01/27 12:57:56;;;;;;;8.43;3.25;;;21.60;71.40;;;;;;4990957;28;20125;-54
2021/01/27 13:00:24;;;;;;;7.80;2.88;;;21.60;71.40;;;;;;4994684;28;20112;-53
2021/01/27 13:02:51;;;;;;;11.77;3.38;;;21.70;71.30;;;;;;4992976;28;20128;-54
2021/01/27 13:05:18;;;;;;;10.07;3.03;;;21.70;71.30;;;;;;4989341;28;20117;-54
2021/01/27 13:07:44;;;;;;;7.72;3.17;;;21.70;71.10;;;;;;4993351;28;20022;-55
2021/01/27 13:10:10;;;;;;;10.18;2.63;;;21.70;71.20;;;;;;4993419;28;20081;-53
2021/01/27 13:12:37;;;;;;;7.97;2.67;;;21.60;71.30;;;;;;4996555;28;20506;-53